Time;durP1;ratioP1;P1;durP2;ratioP2;P2;SDS_P1;SDS_P2;PMS_P1;PMS_P2;Temp;Humidity;BMP_temperature;BMP_pressure;BME280_temperature;BME280_humidity;BME280_pressure;Samples;Min_cycle;Max_cycle;Signal;HPM_P1;HPM_P2
2022/09/02 00:00:08;;;;;;;67.37;39.83;;;;;;;;;;5284111;28;20051;-66
2022/09/02 00:02:39;;;;;;;100.68;57.33;;;;;;;;;;5283402;28;20271;-66
2022/09/02 00:05:11;;;;;;;120.00;72.38;;;;;;;;;;5282798;28;20070;-66
2022/09/02 00:07:42;;;;;;;102.18;60.00;;;;;;;;;;5282972;28;20307;-67
2022/09/02 00:10:13;;;;;;;122.28;69.07;;;;;;;;;;5283715;28;20111;-67
2022/09/02 00:12:44;;;;;;;117.40;63.83;;;;;;;;;;5282243;28;20027;-67
2022/09/02 00:15:16;;;;;;;101.47;57.65;;;;;;;;;;5283433;28;20663;-67
2022/09/02 00:17:47;;;;;;;74.05;36.88;;;;;;;;;;5282924;28;20761;-67
2022/09/02 00:20:18;;;;;;;25.67;12.10;;;;;;;;;;5282704;28;20758;-67
2022/09/02 00:22:49;;;;;;;10.65;3.00;;;;;;;;;;5282822;28;20013;-67
2022/09/02 00:25:21;;;;;;;3.90;1.13;;;;;;;;;;5282649;28;20021;-67
2022/09/02 00:27:53;;;;;;;4.18;0.45;;;;;;;;;;5283027;28;20741;-67
2022/09/02 00:30:24;;;;;;;2.97;0.50;;;;;;;;;;5283094;28;20027;-67
2022/09/02 00:32:55;;;;;;;3.60;0.50;;;;;;;;;;5282195;28;20271;-66
2022/09/02 00:35:26;;;;;;;4.32;0.40;;;;;;;;;;5282855;28;20039;-65
2022/09/02 00:37:58;;;;;;;2.97;0.40;;;;;;;;;;5283259;28;20103;-66
2022/09/02 00:40:31;;;;;;;8.00;0.57;;;;;;;;;;5281722;28;20059;-66
2022/09/02 00:43:04;;;;;;;2.72;0.50;;;;;;;;;;5283165;28;20500;-65
2022/09/02 00:45:36;;;;;;;2.60;0.60;;;;;;;;;;5282332;28;20023;-65
2022/09/02 00:48:08;;;;;;;3.95;0.93;;;;;;;;;;5282081;28;20013;-66
2022/09/02 00:50:39;;;;;;;4.03;0.50;;;;;;;;;;5282268;28;20482;-66
2022/09/02 00:53:12;;;;;;;3.15;0.52;;;;;;;;;;5282908;28;20063;-66
2022/09/02 00:55:44;;;;;;;3.03;0.40;;;;;;;;;;5281381;28;20040;-66
2022/09/02 00:58:19;;;;;;;2.03;0.43;;;;;;;;;;5283276;28;20452;-66
2022/09/02 01:00:55;;;;;;;2.05;0.40;;;;;;;;;;5281273;28;20016;-66
2022/09/02 01:03:28;;;;;;;2.70;0.40;;;;;;;;;;5282147;28;20471;-66
2022/09/02 01:06:00;;;;;;;2.47;0.38;;;;;;;;;;5282409;28;20024;-66
2022/09/02 01:08:33;;;;;;;4.22;0.55;;;;;;;;;;5280991;28;20454;-66
2022/09/02 01:11:05;;;;;;;3.85;0.40;;;;;;;;;;5282550;28;20491;-66
2022/09/02 01:13:37;;;;;;;2.15;0.50;;;;;;;;;;5281886;28;20171;-66
2022/09/02 01:16:11;;;;;;;5.88;0.40;;;;;;;;;;5280437;28;20031;-66
2022/09/02 01:18:45;;;;;;;3.35;0.40;;;;;;;;;;5281717;28;20385;-66
2022/09/02 01:21:17;;;;;;;1.88;0.30;;;;;;;;;;5282554;28;20028;-66
2022/09/02 01:23:49;;;;;;;2.13;0.40;;;;;;;;;;5280937;28;20020;-66
2022/09/02 01:26:20;;;;;;;3.05;0.40;;;;;;;;;;5282217;28;20048;-66
2022/09/02 01:28:51;;;;;;;4.38;0.40;;;;;;;;;;5280826;28;20027;-66
2022/09/02 01:31:22;;;;;;;2.80;0.40;;;;;;;;;;5282079;28;20035;-65
2022/09/02 01:33:54;;;;;;;4.57;0.40;;;;;;;;;;5281551;28;20024;-66
2022/09/02 01:36:25;;;;;;;2.33;0.40;;;;;;;;;;5280911;28;20611;-66
2022/09/02 01:38:56;;;;;;;3.17;0.47;;;;;;;;;;5281721;28;20073;-66
2022/09/02 01:41:27;;;;;;;7.80;0.60;;;;;;;;;;5281321;28;20283;-66
2022/09/02 01:43:58;;;;;;;2.13;0.38;;;;;;;;;;5280920;28;20012;-66
2022/09/02 01:46:30;;;;;;;3.10;0.40;;;;;;;;;;5281374;28;20444;-66
2022/09/02 01:49:01;;;;;;;4.30;0.50;;;;;;;;;;5281766;28;20024;-66
2022/09/02 01:51:32;;;;;;;4.18;0.40;;;;;;;;;;5280361;28;20024;-66
2022/09/02 01:54:04;;;;;;;3.08;0.40;;;;;;;;;;5281447;28;20020;-66
2022/09/02 01:56:35;;;;;;;5.53;0.52;;;;;;;;;;5280326;28;20039;-66
2022/09/02 01:59:06;;;;;;;5.03;0.50;;;;;;;;;;5281747;28;20066;-66
2022/09/02 02:01:38;;;;;;;2.20;0.40;;;;;;;;;;5280989;28;20099;-66
2022/09/02 02:04:09;;;;;;;7.35;0.40;;;;;;;;;;5280606;28;20479;-66
2022/09/02 02:06:42;;;;;;;2.08;0.50;;;;;;;;;;5280692;28;20095;-66
2022/09/02 02:09:15;;;;;;;2.15;0.45;;;;;;;;;;5281619;28;20444;-66
2022/09/02 02:11:47;;;;;;;3.65;0.40;;;;;;;;;;5280231;28;20020;-66
2022/09/02 02:14:18;;;;;;;4.93;0.40;;;;;;;;;;5281527;28;20012;-66
2022/09/02 02:16:50;;;;;;;4.28;0.50;;;;;;;;;;5280764;28;20082;-66
2022/09/02 02:19:21;;;;;;;1.02;0.30;;;;;;;;;;5280445;28;20499;-68
2022/09/02 02:21:52;;;;;;;1.50;0.40;;;;;;;;;;5280919;28;20494;-66
2022/09/02 02:24:23;;;;;;;1.20;0.50;;;;;;;;;;5281027;28;20031;-66
2022/09/02 02:26:54;;;;;;;5.73;0.40;;;;;;;;;;5280072;28;20027;-67
2022/09/02 02:29:26;;;;;;;3.80;0.50;;;;;;;;;;5280596;28;20273;-66
2022/09/02 02:31:57;;;;;;;3.65;0.40;;;;;;;;;;5280157;28;20700;-67
2022/09/02 02:34:28;;;;;;;2.40;0.40;;;;;;;;;;5280678;28;20448;-66
2022/09/02 02:36:59;;;;;;;3.53;0.50;;;;;;;;;;5281175;28;20687;-67
2022/09/02 02:39:31;;;;;;;6.85;0.50;;;;;;;;;;5279723;28;20062;-67
2022/09/02 02:42:02;;;;;;;3.30;0.40;;;;;;;;;;5281002;28;20498;-66
2022/09/02 02:44:33;;;;;;;3.20;0.50;;;;;;;;;;5280800;28;20035;-65
2022/09/02 02:47:06;;;;;;;3.55;0.45;;;;;;;;;;5280165;28;20024;-65
2022/09/02 02:49:39;;;;;;;4.30;0.40;;;;;;;;;;5280576;28;20061;-65
2022/09/02 02:52:10;;;;;;;3.50;0.40;;;;;;;;;;5280891;28;20017;-66
2022/09/02 02:54:42;;;;;;;4.53;0.70;;;;;;;;;;5279392;28;20379;-66
2022/09/02 02:57:13;;;;;;;2.50;0.50;;;;;;;;;;5281037;28;20562;-66
2022/09/02 02:59:44;;;;;;;7.85;0.80;;;;;;;;;;5280535;28;20048;-66
2022/09/02 03:02:16;;;;;;;4.90;0.53;;;;;;;;;;5280277;28;20332;-66
2022/09/02 03:04:49;;;;;;;4.07;0.50;;;;;;;;;;5280239;28;20267;-66
2022/09/02 03:07:20;;;;;;;2.85;0.60;;;;;;;;;;5279979;28;20154;-66
2022/09/02 03:09:52;;;;;;;2.60;0.50;;;;;;;;;;5280335;28;20130;-66
2022/09/02 03:12:23;;;;;;;5.70;0.43;;;;;;;;;;5280827;28;20263;-66
2022/09/02 03:14:54;;;;;;;4.38;0.47;;;;;;;;;;5279757;28;20267;-66
2022/09/02 03:17:26;;;;;;;4.88;0.50;;;;;;;;;;5280097;28;20094;-67
2022/09/02 03:19:58;;;;;;;4.47;0.40;;;;;;;;;;5280666;28;20403;-66
2022/09/02 03:22:29;;;;;;;4.55;0.63;;;;;;;;;;5279405;28;20267;-66
2022/09/02 03:25:00;;;;;;;3.10;0.50;;;;;;;;;;5280786;28;20032;-66
2022/09/02 03:27:33;;;;;;;3.17;0.57;;;;;;;;;;5280012;28;20013;-66
2022/09/02 03:30:08;;;;;;;4.97;0.80;;;;;;;;;;5279799;28;20088;-66
2022/09/02 03:32:40;;;;;;;3.50;0.70;;;;;;;;;;5279870;28;20020;-66
2022/09/02 03:35:13;;;;;;;4.45;0.50;;;;;;;;;;5279602;28;20016;-66
2022/09/02 03:37:45;;;;;;;5.63;0.57;;;;;;;;;;5280048;28;20024;-66
2022/09/02 03:40:19;;;;;;;5.57;0.70;;;;;;;;;;5283820;28;20032;-66
2022/09/02 03:42:51;;;;;;;2.60;1.02;;;;;;;;;;5283014;28;20170;-66
2022/09/02 03:45:22;;;;;;;3.13;0.60;;;;;;;;;;5284354;28;20087;-66
2022/09/02 03:47:54;;;;;;;5.78;0.80;;;;;;;;;;5283835;28;20028;-66
2022/09/02 03:50:28;;;;;;;3.75;0.82;;;;;;;;;;5282879;28;20028;-66
2022/09/02 03:52:59;;;;;;;3.70;0.70;;;;;;;;;;5283899;28;20375;-67
2022/09/02 03:55:30;;;;;;;8.32;0.77;;;;;;;;;;5283493;28;20047;-66
2022/09/02 03:58:02;;;;;;;9.23;0.70;;;;;;;;;;5283340;28;20099;-66
2022/09/02 04:00:33;;;;;;;5.82;0.65;;;;;;;;;;5283356;28;20020;-67
2022/09/02 04:03:04;;;;;;;3.90;0.70;;;;;;;;;;5283934;28;20106;-66
2022/09/02 04:05:36;;;;;;;4.78;0.70;;;;;;;;;;5282311;28;20263;-67
2022/09/02 04:08:07;;;;;;;7.82;1.25;;;;;;;;;;5283466;28;20052;-67
2022/09/02 04:10:38;;;;;;;5.32;0.80;;;;;;;;;;5282271;28;20032;-66
2022/09/02 04:13:10;;;;;;;6.40;0.80;;;;;;;;;;5283645;28;20263;-66
2022/09/02 04:15:43;;;;;;;4.30;0.80;;;;;;;;;;5283001;28;20027;-66
2022/09/02 04:18:16;;;;;;;4.47;0.90;;;;;;;;;;5283051;28;20052;-66
2022/09/02 04:20:47;;;;;;;5.60;1.10;;;;;;;;;;5283263;28;20026;-66
2022/09/02 04:23:18;;;;;;;6.32;1.00;;;;;;;;;;5283573;28;20074;-65
2022/09/02 04:25:49;;;;;;;3.33;1.20;;;;;;;;;;5282094;28;20269;-66
2022/09/02 04:28:20;;;;;;;5.97;0.87;;;;;;;;;;5283241;28;20074;-66
2022/09/02 04:30:51;;;;;;;6.78;1.20;;;;;;;;;;5282904;28;20345;-66
2022/09/02 04:33:22;;;;;;;6.85;1.42;;;;;;;;;;5282533;28;20120;-66
2022/09/02 04:35:54;;;;;;;11.10;1.48;;;;;;;;;;5282742;28;20364;-66
2022/09/02 04:38:25;;;;;;;5.13;1.60;;;;;;;;;;5281805;28;20289;-66
2022/09/02 04:40:57;;;;;;;5.68;1.30;;;;;;;;;;5283025;28;20286;-66
2022/09/02 04:43:28;;;;;;;5.40;1.40;;;;;;;;;;5282480;28;20016;-66
2022/09/02 04:46:00;;;;;;;5.72;1.42;;;;;;;;;;5282225;28;20025;-66
2022/09/02 04:48:31;;;;;;;7.22;1.70;;;;;;;;;;5281964;28;20259;-67
2022/09/02 04:51:04;;;;;;;6.57;1.35;;;;;;;;;;5281476;28;20040;-66
2022/09/02 04:53:35;;;;;;;12.40;1.67;;;;;;;;;;5281020;28;20020;-66
2022/09/02 04:56:07;;;;;;;9.57;1.88;;;;;;;;;;5282590;28;20036;-66
2022/09/02 04:58:39;;;;;;;6.45;1.73;;;;;;;;;;5281951;28;20043;-67
2022/09/02 05:01:14;;;;;;;10.52;2.58;;;;;;;;;;5281864;28;20021;-66
2022/09/02 05:03:46;;;;;;;11.95;2.58;;;;;;;;;;5281835;28;20539;-66
2022/09/02 05:06:19;;;;;;;12.70;2.80;;;;;;;;;;5282220;28;20047;-66
2022/09/02 05:08:50;;;;;;;7.70;2.38;;;;;;;;;;5280831;28;20039;-67
2022/09/02 05:11:27;;;;;;;9.57;3.28;;;;;;;;;;5282421;28;20368;-67
2022/09/02 05:13:59;;;;;;;10.73;2.80;;;;;;;;;;5281672;28;20095;-67
2022/09/02 05:16:32;;;;;;;14.10;2.67;;;;;;;;;;5281511;28;20033;-66
2022/09/02 05:19:04;;;;;;;15.63;3.97;;;;;;;;;;5282049;28;20158;-66
2022/09/02 05:21:40;;;;;;;8.80;3.25;;;;;;;;;;5280569;28;20024;-66
2022/09/02 05:24:11;;;;;;;10.15;3.33;;;;;;;;;;5282264;28;20017;-67
2022/09/02 05:26:43;;;;;;;10.80;3.50;;;;;;;;;;5281382;28;20063;-66
2022/09/02 05:29:16;;;;;;;10.18;3.20;;;;;;;;;;5281176;28;20263;-66
2022/09/02 05:31:47;;;;;;;11.73;3.90;;;;;;;;;;5281656;28;20032;-66
2022/09/02 05:34:18;;;;;;;11.35;3.83;;;;;;;;;;5281856;28;20036;-66
2022/09/02 05:36:50;;;;;;;16.90;4.80;;;;;;;;;;5280447;28;20028;-66
2022/09/02 05:39:21;;;;;;;11.07;5.03;;;;;;;;;;5281684;28;20270;-66
2022/09/02 05:41:52;;;;;;;10.75;4.10;;;;;;;;;;5280514;28;20023;-66
2022/09/02 05:44:23;;;;;;;11.80;3.65;;;;;;;;;;5281542;28;20049;-68
2022/09/02 05:46:54;;;;;;;14.98;3.80;;;;;;;;;;5281427;28;20047;-65
2022/09/02 05:49:26;;;;;;;9.20;3.47;;;;;;;;;;5280305;28;20059;-66
2022/09/02 05:51:58;;;;;;;11.15;4.72;;;;;;;;;;5281373;28;20278;-66
2022/09/02 05:54:30;;;;;;;9.18;4.50;;;;;;;;;;5281140;28;20013;-66
2022/09/02 05:57:05;;;;;;;12.40;3.88;;;;;;;;;;5280789;28;20087;-66
2022/09/02 05:59:40;;;;;;;11.80;4.45;;;;;;;;;;5281030;28;20020;-66
2022/09/02 06:02:12;;;;;;;13.73;4.50;;;;;;;;;;5280946;28;20487;-67
2022/09/02 06:04:45;;;;;;;14.38;4.78;;;;;;;;;;5280247;28;20020;-67
2022/09/02 06:07:17;;;;;;;17.02;5.13;;;;;;;;;;5281281;28;20063;-67
2022/09/02 06:09:49;;;;;;;15.20;5.53;;;;;;;;;;5280029;28;20091;-67
2022/09/02 06:12:20;;;;;;;14.45;5.93;;;;;;;;;;5281244;28;20024;-67
2022/09/02 06:14:51;;;;;;;16.33;5.80;;;;;;;;;;5280774;28;20386;-67
2022/09/02 06:17:22;;;;;;;14.67;6.47;;;;;;;;;;5280438;28;20454;-67
2022/09/02 06:19:53;;;;;;;15.37;6.77;;;;;;;;;;5280808;28;20289;-67
2022/09/02 06:22:24;;;;;;;17.23;7.97;;;;;;;;;;5280988;28;20350;-67
2022/09/02 06:24:56;;;;;;;24.85;8.57;;;;;;;;;;5280086;28;20275;-67
2022/09/02 06:27:27;;;;;;;22.50;8.07;;;;;;;;;;5280758;28;20083;-67
2022/09/02 06:29:58;;;;;;;25.42;9.13;;;;;;;;;;5281282;28;20277;-66
2022/09/02 06:32:29;;;;;;;24.87;10.17;;;;;;;;;;5279697;28;20470;-66
2022/09/02 06:35:00;;;;;;;18.92;8.73;;;;;;;;;;5281042;28;20720;-66
2022/09/02 06:37:31;;;;;;;27.27;9.93;;;;;;;;;;5280234;28;20161;-66
2022/09/02 06:40:03;;;;;;;22.17;9.57;;;;;;;;;;5280054;28;20267;-66
2022/09/02 06:42:34;;;;;;;24.88;10.85;;;;;;;;;;5280577;28;20781;-67
2022/09/02 06:45:06;;;;;;;34.22;12.50;;;;;;;;;;5280177;28;20028;-67
2022/09/02 06:47:37;;;;;;;23.60;10.82;;;;;;;;;;5280413;28;20282;-67
2022/09/02 06:50:08;;;;;;;29.13;11.73;;;;;;;;;;5280897;28;20033;-66
2022/09/02 06:52:39;;;;;;;36.95;12.25;;;;;;;;;;5279757;28;20300;-66
2022/09/02 06:55:11;;;;;;;35.17;12.50;;;;;;;;;;5280824;28;20024;-66
2022/09/02 06:57:42;;;;;;;23.05;11.55;;;;;;;;;;5280377;28;20967;-66
2022/09/02 07:00:15;;;;;;;28.10;13.23;;;;;;;;;;5279917;28;20016;-66
2022/09/02 07:05:08;;;;;;;30.85;13.65;;;;;;;;;;5270982;28;20585;-66
2022/09/02 07:05:38;;;;;;;28.27;13.02;;;;;;;;;;5278866;28;20039;-66
2022/09/02 07:08:09;;;;;;;31.65;13.60;;;;;;;;;;5279205;28;20048;-67
2022/09/02 07:10:40;;;;;;;29.08;13.05;;;;;;;;;;5279437;28;20024;-66
2022/09/02 07:13:13;;;;;;;29.30;13.68;;;;;;;;;;5279802;28;20024;-66
2022/09/02 07:15:44;;;;;;;28.20;13.82;;;;;;;;;;5283894;28;20041;-66
2022/09/02 07:18:15;;;;;;;31.35;13.88;;;;;;;;;;5284432;28;20013;-66
2022/09/02 07:20:46;;;;;;;28.65;12.60;;;;;;;;;;5283245;28;20487;-67
2022/09/02 07:23:18;;;;;;;31.92;13.95;;;;;;;;;;5284255;28;20095;-66
2022/09/02 07:25:49;;;;;;;28.95;13.63;;;;;;;;;;5283705;28;20031;-66
2022/09/02 07:28:20;;;;;;;35.65;14.20;;;;;;;;;;5283907;28;20372;-67
2022/09/02 07:30:54;;;;;;;26.50;12.75;;;;;;;;;;5283691;28;20043;-67
2022/09/02 07:33:25;;;;;;;27.50;13.02;;;;;;;;;;5283878;28;20021;-67
2022/09/02 07:35:56;;;;;;;27.58;13.32;;;;;;;;;;5283308;28;20360;-67
2022/09/02 07:38:28;;;;;;;33.78;14.35;;;;;;;;;;5283667;28;20050;-68
2022/09/02 07:40:59;;;;;;;26.40;13.13;;;;;;;;;;5284126;28;20265;-68
2022/09/02 07:43:32;;;;;;;32.03;12.95;;;;;;;;;;5282841;28;20025;-67
2022/09/02 07:46:04;;;;;;;26.60;13.40;;;;;;;;;;5284156;28;20036;-68
2022/09/02 07:48:35;;;;;;;29.60;14.45;;;;;;;;;;5282589;28;20071;-67
2022/09/02 07:51:07;;;;;;;27.87;14.97;;;;;;;;;;5278092;28;20139;-67
2022/09/02 07:53:39;;;;;;;30.52;13.65;;;;;;;;;;5282816;28;20271;-67
2022/09/02 07:56:12;;;;;;;29.02;12.75;;;;;;;;;;5270580;28;20050;-67
2022/09/02 07:58:44;;;;;;;28.92;12.93;;;;;;;;;;5267605;28;20045;-67
2022/09/02 08:01:15;;;;;;;27.60;12.55;;;;;;;;;;5262886;28;20087;-68
2022/09/02 08:03:46;;;;;;;25.85;12.70;;;;;;;;;;5261630;28;20407;-66
2022/09/02 08:06:19;;;;;;;23.65;12.50;;;;;;;;;;5263108;28;20032;-69
2022/09/02 08:08:50;;;;;;;30.85;12.63;;;;;;;;;;5261976;28;20439;-67
2022/09/02 08:11:22;;;;;;;24.63;11.82;;;;;;;;;;5262093;28;20086;-67
2022/09/02 08:13:53;;;;;;;28.63;12.48;;;;;;;;;;5262309;28;20338;-67
2022/09/02 08:16:25;;;;;;;32.83;13.00;;;;;;;;;;5261881;28;20033;-68
2022/09/02 08:18:56;;;;;;;26.77;13.13;;;;;;;;;;5262505;28;20028;-67
2022/09/02 08:21:28;;;;;;;36.63;13.45;;;;;;;;;;5262068;28;20078;-68
2022/09/02 08:23:59;;;;;;;33.15;13.65;;;;;;;;;;5261575;28;20024;-70
2022/09/02 08:26:35;;;;;;;30.02;12.43;;;;;;;;;;5262213;28;20021;-69
2022/09/02 08:29:07;;;;;;;31.95;12.35;;;;;;;;;;5262734;28;20208;-69
2022/09/02 08:31:38;;;;;;;23.88;12.30;;;;;;;;;;5261399;28;20099;-67
2022/09/02 08:34:09;;;;;;;34.08;12.27;;;;;;;;;;5262388;28;20091;-67
2022/09/02 08:36:42;;;;;;;27.80;12.35;;;;;;;;;;5262102;28;20036;-70
2022/09/02 08:39:13;;;;;;;28.02;11.57;;;;;;;;;;5261694;28;20343;-67
2022/09/02 08:42:23;;;;;;;23.75;11.55;;;;;;;;;;5261842;28;20104;-68
2022/09/02 08:44:57;;;;;;;24.90;10.68;;;;;;;;;;5165130;28;20146;-68
2022/09/02 08:47:30;;;;;;;25.88;10.48;;;;;;;;;;5177078;28;20379;-68
2022/09/02 08:50:04;;;;;;;31.27;11.00;;;;;;;;;;5238925;28;20021;-67
2022/09/02 08:52:38;;;;;;;30.27;11.48;;;;;;;;;;5281075;28;20024;-68
2022/09/02 08:55:12;;;;;;;22.77;11.52;;;;;;;;;;5282277;28;20017;-68
2022/09/02 08:57:44;;;;;;;23.77;11.60;;;;;;;;;;5281602;28;20081;-68
2022/09/02 09:00:16;;;;;;;24.48;10.57;;;;;;;;;;5281104;28;20478;-68
2022/09/02 09:02:55;;;;;;;18.88;8.60;;;;;;;;;;5281658;28;20051;-68
2022/09/02 09:05:46;;;;;;;24.40;8.95;;;;;;;;;;5281830;28;20019;-68
2022/09/02 09:08:17;;;;;;;21.17;9.98;;;;;;;;;;5282391;28;20569;-68
2022/09/02 09:10:55;;;;;;;25.42;9.57;;;;;;;;;;5281744;28;20028;-68
2022/09/02 09:13:45;;;;;;;19.83;9.30;;;;;;;;;;5281052;28;20024;-69
2022/09/02 09:16:36;;;;;;;23.60;9.15;;;;;;;;;;5282531;28;20040;-67
2022/09/02 09:19:28;;;;;;;18.30;6.78;;;;;;;;;;5281952;28;20048;-67
2022/09/02 09:22:02;;;;;;;18.55;8.00;;;;;;;;;;5280510;28;20181;-68
2022/09/02 09:24:41;;;;;;;17.38;5.82;;;;;;;;;;5281345;28;20023;-66
2022/09/02 09:27:14;;;;;;;14.75;4.78;;;;;;;;;;5281435;28;20012;-67
2022/09/02 09:29:45;;;;;;;13.50;4.60;;;;;;;;;;5281510;28;20115;-67
2022/09/02 09:32:22;;;;;;;10.15;3.95;;;;;;;;;;5281962;28;20099;-68
2022/09/02 09:34:56;;;;;;;11.05;4.13;;;;;;;;;;5280797;28;20017;-67
2022/09/02 09:37:32;;;;;;;15.07;3.90;;;;;;;;;;5280856;28;20043;-67
2022/09/02 09:40:19;;;;;;;9.35;2.90;;;;;;;;;;5282055;28;20491;-67
2022/09/02 09:42:54;;;;;;;9.45;1.85;;;;;;;;;;5280426;28;20032;-67
2022/09/02 09:45:25;;;;;;;10.07;3.50;;;;;;;;;;5281627;28;20012;-67
2022/09/02 09:48:06;;;;;;;10.17;1.83;;;;;;;;;;5281237;28;20073;-67
2022/09/02 09:50:37;;;;;;;9.05;1.23;;;;;;;;;;5281384;28;20273;-67
2022/09/02 09:53:19;;;;;;;5.88;1.38;;;;;;;;;;5281878;28;20017;-67
2022/09/02 09:55:55;;;;;;;5.05;0.80;;;;;;;;;;5280565;28;20055;-67
2022/09/02 09:58:33;;;;;;;3.60;0.73;;;;;;;;;;5281103;28;20039;-67
2022/09/02 10:01:10;;;;;;;6.47;0.70;;;;;;;;;;5281865;28;20040;-67
2022/09/02 10:03:42;;;;;;;5.75;0.70;;;;;;;;;;5280337;28;20028;-67
2022/09/02 10:06:37;;;;;;;6.45;0.50;;;;;;;;;;5281598;28;20012;-67
2022/09/02 10:09:14;;;;;;;6.70;0.60;;;;;;;;;;5267132;28;20094;-67
2022/09/02 10:11:57;;;;;;;6.50;0.70;;;;;;;;;;5281027;28;20466;-67
2022/09/02 10:14:36;;;;;;;5.10;0.60;;;;;;;;;;5280854;28;20023;-68
2022/09/02 10:17:22;;;;;;;6.85;0.73;;;;;;;;;;5281218;28;20036;-68
2022/09/02 10:19:56;;;;;;;8.57;0.60;;;;;;;;;;5281342;28;20051;-68
2022/09/02 10:22:27;;;;;;;3.22;0.70;;;;;;;;;;5280997;28;20027;-68
2022/09/02 10:25:01;;;;;;;7.20;0.50;;;;;;;;;;5280303;28;20025;-68
2022/09/02 10:27:39;;;;;;;5.38;0.50;;;;;;;;;;5280693;28;20017;-68
2022/09/02 10:30:17;;;;;;;5.93;0.52;;;;;;;;;;5280518;28;20027;-68
2022/09/02 10:32:54;;;;;;;9.32;0.50;;;;;;;;;;5280482;28;20058;-68
2022/09/02 10:35:45;;;;;;;4.55;0.60;;;;;;;;;;5280721;28;20028;-68
2022/09/02 10:38:37;;;;;;;3.03;0.60;;;;;;;;;;5280743;28;20027;-68
2022/09/02 10:41:27;;;;;;;1.83;0.40;;;;;;;;;;5281152;28;20031;-68
2022/09/02 10:43:58;;;;;;;3.95;0.40;;;;;;;;;;5280998;28;20108;-68
2022/09/02 10:46:33;;;;;;;4.80;0.45;;;;;;;;;;5279906;28;20104;-67
2022/09/02 10:49:09;;;;;;;4.32;0.40;;;;;;;;;;5284632;28;20024;-66
2022/09/02 10:51:40;;;;;;;3.60;0.47;;;;;;;;;;5283754;28;20031;-69
2022/09/02 10:54:18;;;;;;;5.78;0.40;;;;;;;;;;5285233;28;20036;-68
2022/09/02 10:56:54;;;;;;;9.73;0.50;;;;;;;;;;5284625;28;20452;-68
2022/09/02 10:59:30;;;;;;;2.28;0.40;;;;;;;;;;5283789;28;20048;-69
2022/09/02 11:02:11;;;;;;;6.57;0.45;;;;;;;;;;5285023;28;20016;-68
2022/09/02 11:04:42;;;;;;;4.85;0.50;;;;;;;;;;5284473;28;20043;-68
2022/09/02 11:07:16;;;;;;;3.53;0.40;;;;;;;;;;5283783;28;20045;-67
2022/09/02 11:09:49;;;;;;;4.82;0.68;;;;;;;;;;5284302;28;20012;-68
2022/09/02 11:12:26;;;;;;;4.05;0.70;;;;;;;;;;5284067;28;20043;-68
2022/09/02 11:15:06;;;;;;;2.75;0.38;;;;;;;;;;5285114;28;20151;-69
2022/09/02 11:17:56;;;;;;;5.05;0.45;;;;;;;;;;5284130;28;20040;-68
2022/09/02 11:20:46;;;;;;;4.28;0.50;;;;;;;;;;5283104;28;20031;-69
2022/09/02 11:23:17;;;;;;;2.17;0.40;;;;;;;;;;5284738;28;20020;-69
2022/09/02 11:25:54;;;;;;;3.78;0.57;;;;;;;;;;5284227;28;20551;-68
2022/09/02 11:28:34;;;;;;;5.05;0.40;;;;;;;;;;5283527;28;20095;-68
2022/09/02 11:31:15;;;;;;;1.40;0.40;;;;;;;;;;5284673;28;20103;-68
2022/09/02 11:33:59;;;;;;;3.53;0.40;;;;;;;;;;5283547;28;20389;-68
2022/09/02 11:36:36;;;;;;;1.23;0.40;;;;;;;;;;5284119;28;20067;-68
2022/09/02 11:39:10;;;;;;;3.92;0.40;;;;;;;;;;5284505;28;20055;-68
2022/09/02 11:41:57;;;;;;;5.53;0.40;;;;;;;;;;5283249;28;20091;-68
2022/09/02 11:44:31;;;;;;;3.85;0.50;;;;;;;;;;5283765;28;20017;-68
2022/09/02 11:47:07;;;;;;;2.58;0.38;;;;;;;;;;5284553;28;20017;-68
2022/09/02 11:49:42;;;;;;;1.65;0.40;;;;;;;;;;5282902;28;20027;-68
2022/09/02 11:52:22;;;;;;;1.52;0.30;;;;;;;;;;5284060;28;20027;-68
2022/09/02 11:55:00;;;;;;;4.25;0.32;;;;;;;;;;5282889;28;20068;-68
2022/09/02 11:57:32;;;;;;;1.48;0.35;;;;;;;;;;5283575;28;20032;-68
2022/09/02 12:00:06;;;;;;;5.47;0.40;;;;;;;;;;5283383;28;20021;-68
2022/09/02 12:02:40;;;;;;;3.75;0.40;;;;;;;;;;5282699;28;20179;-68
2022/09/02 12:05:30;;;;;;;0.95;0.30;;;;;;;;;;5284061;28;20017;-68
2022/09/02 12:08:11;;;;;;;1.73;0.40;;;;;;;;;;5283885;28;20049;-68
2022/09/02 12:10:42;;;;;;;1.33;0.30;;;;;;;;;;5282293;28;20017;-68
2022/09/02 12:13:32;;;;;;;3.00;0.50;;;;;;;;;;5283902;28;20356;-68
2022/09/02 12:16:14;;;;;;;2.75;0.30;;;;;;;;;;5283061;28;20097;-68
2022/09/02 12:19:07;;;;;;;3.58;0.30;;;;;;;;;;5282915;28;20558;-68
2022/09/02 12:21:58;;;;;;;1.83;0.30;;;;;;;;;;5282562;28;20020;-68
2022/09/02 12:24:46;;;;;;;2.42;0.30;;;;;;;;;;5282026;28;20021;-68
2022/09/02 12:27:21;;;;;;;1.48;0.30;;;;;;;;;;5283331;28;20024;-67
2022/09/02 12:29:53;;;;;;;3.30;0.30;;;;;;;;;;5282287;28;20840;-68
2022/09/02 12:32:43;;;;;;;2.25;0.20;;;;;;;;;;5283238;28;20055;-67
2022/09/02 12:35:33;;;;;;;4.78;0.40;;;;;;;;;;5283324;28;20080;-67
2022/09/02 12:38:07;;;;;;;2.47;0.50;;;;;;;;;;5271896;28;20056;-67
2022/09/02 12:41:11;;;;;;;4.43;0.40;;;;;;;;;;5281443;28;20055;-67
2022/09/02 12:43:50;;;;;;;1.73;0.30;;;;;;;;;;5262350;28;20604;-67
2022/09/02 12:46:24;;;;;;;1.80;0.32;;;;;;;;;;5282625;28;20024;-67
2022/09/02 12:49:14;;;;;;;7.25;0.40;;;;;;;;;;5282213;28;20035;-67
2022/09/02 12:52:14;;;;;;;2.22;0.50;;;;;;;;;;5280662;28;20066;-67
2022/09/02 12:54:49;;;;;;;2.08;0.40;;;;;;;;;;5259788;28;20135;-68
2022/09/02 12:57:36;;;;;;;6.78;0.40;;;;;;;;;;5282371;28;20076;-67
2022/09/02 13:00:12;;;;;;;6.75;0.35;;;;;;;;;;5281670;28;20089;-67
2022/09/02 13:03:10;;;;;;;5.93;0.40;;;;;;;;;;5281909;28;20040;-67
2022/09/02 13:06:05;;;;;;;7.13;0.40;;;;;;;;;;5281503;28;20023;-67
2022/09/02 13:08:43;;;;;;;18.75;0.98;;;;;;;;;;5281754;28;20437;-67
2022/09/02 13:11:34;;;;;;;3.72;0.30;;;;;;;;;;5281401;28;20135;-67
2022/09/02 13:14:21;;;;;;;4.72;0.40;;;;;;;;;;5281705;28;20031;-66
2022/09/02 13:17:11;;;;;;;3.22;0.40;;;;;;;;;;5281643;28;20036;-66
2022/09/02 13:20:00;;;;;;;1.40;0.40;;;;;;;;;;5280851;28;20375;-65
2022/09/02 13:22:43;;;;;;;5.50;0.32;;;;;;;;;;5281834;28;20055;-66
2022/09/02 13:25:26;;;;;;;1.92;0.30;;;;;;;;;;5282166;28;20030;-66
2022/09/02 13:28:10;;;;;;;2.85;0.40;;;;;;;;;;5281796;28;20040;-66
2022/09/02 13:30:44;;;;;;;5.10;0.40;;;;;;;;;;5281736;28;20525;-67
2022/09/02 13:33:15;;;;;;;2.78;0.30;;;;;;;;;;5281205;28;20482;-66
2022/09/02 13:35:52;;;;;;;2.58;0.40;;;;;;;;;;5281544;28;20021;-66
2022/09/02 13:38:24;;;;;;;1.55;0.30;;;;;;;;;;5281647;28;20024;-66
2022/09/02 13:40:55;;;;;;;2.65;0.30;;;;;;;;;;5280790;28;20448;-66
2022/09/02 13:43:33;;;;;;;2.55;0.30;;;;;;;;;;5341909;27;20389;-65
2022/09/02 13:46:05;;;;;;;5.57;0.97;;;;;;;;;;5342335;27;20535;-65
2022/09/02 13:48:38;;;;;;;3.63;0.32;;;;;;;;;;5340854;27;20016;-68
2022/09/02 13:51:13;;;;;;;1.92;0.45;;;;;;;;;;5342417;27;20377;-65
2022/09/02 13:53:46;;;;;;;2.35;0.40;;;;;;;;;;5341759;27;20019;-66
2022/09/02 13:56:23;;;;;;;2.92;0.30;;;;;;;;;;5341235;27;20103;-66
2022/09/02 13:58:55;;;;;;;4.43;0.50;;;;;;;;;;5341994;27;20469;-66
2022/09/02 14:01:29;;;;;;;6.10;0.30;;;;;;;;;;5339145;28;20037;-66
2022/09/02 14:04:05;;;;;;;2.03;0.40;;;;;;;;;;5342074;27;20136;-66
2022/09/02 14:06:38;;;;;;;6.25;0.40;;;;;;;;;;5341169;27;20050;-66
2022/09/02 14:09:16;;;;;;;1.45;0.30;;;;;;;;;;5341093;27;20027;-66
2022/09/02 14:11:48;;;;;;;2.90;0.30;;;;;;;;;;5336073;27;20556;-67
2022/09/02 14:14:21;;;;;;;7.28;0.43;;;;;;;;;;5337247;27;20089;-66
2022/09/02 14:17:12;;;;;;;2.67;0.38;;;;;;;;;;5323916;28;20019;-66
2022/09/02 14:19:43;;;;;;;5.20;0.30;;;;;;;;;;5339075;27;20044;-68
2022/09/02 14:22:20;;;;;;;3.93;0.40;;;;;;;;;;5333929;28;20359;-67
2022/09/02 14:24:51;;;;;;;3.08;0.32;;;;;;;;;;5340115;27;20265;-66
2022/09/02 14:27:23;;;;;;;5.80;0.82;;;;;;;;;;5340972;27;20020;-67
2022/09/02 14:29:56;;;;;;;4.45;0.75;;;;;;;;;;5340141;27;20011;-67
2022/09/02 14:32:27;;;;;;;1.60;0.30;;;;;;;;;;5340049;27;20026;-69
2022/09/02 14:35:13;;;;;;;4.17;0.30;;;;;;;;;;5341148;27;20012;-67
2022/09/02 14:37:47;;;;;;;2.70;0.40;;;;;;;;;;5339682;27;20269;-67
2022/09/02 14:40:30;;;;;;;1.80;0.40;;;;;;;;;;5341207;27;20308;-68
2022/09/02 14:43:01;;;;;;;3.60;0.40;;;;;;;;;;5340446;27;20051;-69
2022/09/02 14:45:33;;;;;;;4.75;0.40;;;;;;;;;;5339715;27;20022;-70
2022/09/02 14:48:31;;;;;;;3.80;0.40;;;;;;;;;;5341111;27;20049;-69
2022/09/02 14:51:04;;;;;;;5.10;0.45;;;;;;;;;;5336574;27;20110;-69
2022/09/02 14:53:36;;;;;;;2.10;0.30;;;;;;;;;;5333465;27;20030;-69
2022/09/02 14:56:07;;;;;;;8.98;0.30;;;;;;;;;;5327032;28;20016;-68
2022/09/02 14:58:38;;;;;;;4.88;0.68;;;;;;;;;;5325056;28;20092;-68
2022/09/02 15:01:10;;;;;;;4.10;0.40;;;;;;;;;;5326305;28;20370;-69
2022/09/02 15:03:43;;;;;;;4.05;0.50;;;;;;;;;;5325760;28;20046;-69
2022/09/02 15:06:14;;;;;;;4.35;0.50;;;;;;;;;;5325950;27;20015;-69
2022/09/02 15:08:45;;;;;;;5.17;0.90;;;;;;;;;;5325880;28;20039;-69
2022/09/02 15:11:19;;;;;;;4.90;0.50;;;;;;;;;;5326499;28;20090;-69
2022/09/02 15:13:51;;;;;;;2.80;0.47;;;;;;;;;;5325513;28;20534;-69
2022/09/02 15:16:22;;;;;;;6.15;0.60;;;;;;;;;;5326295;28;20091;-69
2022/09/02 15:18:53;;;;;;;6.60;0.50;;;;;;;;;;5324795;28;20016;-71